Observations for NORWICH WEA CNTRE, United Kingdom (EGSH)

EGSH 280520Z 02011KT 360V060 4000 RA FEW001 BKN004 OVC005 14/13 Q0997 TEMPO -RA 
EGSH 280450Z 02011KT 350V050 5000 -RA BKN004 OVC005 15/14 Q0997 RERA TEMPO RA   
EGSH 280420Z AUTO 01010KT 6000 RA FEW001/// BKN004/// BKN008/// 14/14 Q0998 RERA
EGSH 280350Z AUTO 01012KT 5000 RA BKN003/// OVC027/// 15/14 Q0998 RERA  
EGSH 280320Z AUTO 03010KT 360V060 3400 RA BKN003/// OVC025/// 15/14 Q0999 RERA REDZ 
EGSH 280250Z AUTO 04010KT 3200 RA OVC003/// 15/14 Q0999 RERA
EGSH 280220Z AUTO 04008KT 4100 RA OVC003/// 15/14 Q1000 REDZ
EGSH 280150Z AUTO 03007KT 5000 -RA OVC003/// 15/14 Q1000 RERA   
EGSH 280120Z AUTO 03007KT 5000 RA OVC003/// 15/14 Q1001 
EGSH 280050Z AUTO 03006KT 6000 RA BKN004/// OVC008/// 15/14 Q1001   
EGSH 280020Z AUTO 02007KT 6000 -RA BKN005/// OVC008/// 15/14 Q1002 RERA 
EGSH 272350Z AUTO 02006KT 8000 -RA BKN005/// OVC012/// 15/14 Q1002 RERA 
EGSH 272320Z AUTO 02006KT 8000 -RA OVC005/// 15/14 Q1003
EGSH 272250Z AUTO 01005KT 9999 BKN007/// 15/14 Q1003
EGSH 272220Z AUTO 03005KT 8000 -RA SCT007/// BKN010/// BKN028/// 15/14 Q1003
EGSH 272150Z AUTO 02005KT 9999 BKN007/// 15/14 Q1003
EGSH 272120Z AUTO 02005KT 9999 NCD 14/14 Q1004  
EGSH 272050Z AUTO 02005KT 350V060 9999 NCD 14/14 Q1004 RERA 
EGSH 271850Z 05006KT 6000 RA FEW005 SCT010 BKN015 14/13 Q1005 TEMPO -RA 
EGSH 271820Z 07007KT 6000 RA FEW001 SCT005 BKN021 14/13 Q1005 TEMPO NSW 
EGSH 271750Z 08009KT 6000 RA FEW009 SCT017 BKN022 14/13 Q1005 NOSIG 
EGSH 271650Z 08008KT 6000 RA SCT017 BKN027 13/13 Q1006 RERA NOSIG   
EGSH 271620Z 08007KT 6000 +RA SCT005 BKN012 13/13 Q1006 TEMPO RA SCT012 
EGSH 271550Z 08009KT 6000 +RA SCT005 BKN012 13/12 Q1007 RETS TEMPO RA   
EGSH 271520Z 08008KT 6000 +TSRA SCT009 SCT010CB BKN027 13/12 Q1007 TEMPO TSRA   
EGSH 271450Z 07009KT 4000 +TSRA SCT009 SCT010CB BKN027 13/12 Q1007 TEMPO 6000 TSRA  
EGSH 271420Z 08007KT 050V110 5000 TSRA FEW008 SCT029 BKN048CB 14/12 Q1008 RESHRA NOSIG  
EGSH 271350Z 07009KT 6000 SHRA SCT029 BKN038 14/12 Q1008 RETS NOSIG 
EGSH 271320Z 08005KT 030V120 8000 TS -SHRA FEW023 BKN063CB 14/12 Q1008 TEMPO SHRA   
EGSH 271250Z 08009KT 9999 4000W TS -SHRA FEW023 BKN080CB 15/12 Q1008 RESHRA BECMG NSW   
EGSH 271220Z 08011KT 9999 3000W SHRA SCT020CB 15/12 Q1009 RETS TEMPO 3000 TSRA  
EGSH 271150Z 10013KT 060V120 9999 3000W TS -SHRA SCT025CB 16/11 Q1009 TEMPO 3000 SHRA   
EGSH 271120Z 09013KT 9999 -DZ SCT025 17/11 Q1009 TEMPO SHRA 
EGSH 271050Z 09011KT 060V130 9999 SCT023 18/11 Q1009 TEMPO SHRA 
EGSH 271020Z 10012KT 040V140 9999 SCT023 18/11 Q1009 TEMPO SHRA 
EGSH 270950Z 09010KT 060V120 9999 SCT020 17/11 Q1009 NOSIG  
EGSH 270920Z 11012KT 070V140 9999 SCT020 17/12 Q1009 NOSIG  
EGSH 270850Z 11011KT 9999 SCT021 17/11 Q1010 NOSIG  
EGSH 270820Z 11009KT 070V160 9999 SCT016 SCT021 17/11 Q1010 NOSIG   
EGSH 270750Z 10010KT 9999 SCT016 SCT021 17/12 Q1010 NOSIG   
EGSH 270720Z 09010KT 060V120 9999 SCT016 SCT021 16/12 Q1010 NOSIG   
EGSH 270650Z 10009KT 9999 SCT016 16/12 Q1010 NOSIG  
EGSH 270620Z 11008KT 070V150 9999 FEW015 15/12 Q1010 TEMPO SHRA 
EGSH 270550Z 10006KT 9999 FEW020 14/12 Q1011 TEMPO SHRA 
EGSH 270520Z 09004KT 060V130 9999 FEW020 14/12 Q1011 TEMPO SHRA 
EGSH 270450Z 08004KT 9999 FEW020 13/11 Q1011 TEMPO SHRA